createdAt,value
2022-10-19T00:01:23.405Z,100.00
2022-10-19T00:03:54.028Z,100.00
2022-10-19T00:06:26.076Z,100.00
2022-10-19T00:08:59.989Z,100.00
2022-10-19T00:11:29.975Z,100.00
2022-10-19T00:13:59.379Z,100.00
2022-10-19T00:16:32.581Z,100.00
2022-10-19T00:19:02.261Z,100.00
2022-10-19T00:21:31.090Z,100.00
2022-10-19T00:23:59.785Z,100.00
2022-10-19T00:26:28.558Z,100.00
2022-10-19T00:28:57.290Z,100.00
2022-10-19T00:31:26.499Z,100.00
2022-10-19T00:33:54.441Z,100.00
2022-10-19T00:36:28.215Z,100.00
2022-10-19T00:38:57.153Z,100.00
2022-10-19T00:41:28.834Z,100.00
2022-10-19T00:44:02.310Z,100.00
2022-10-19T00:46:33.327Z,100.00
2022-10-19T00:49:23.607Z,100.00
2022-10-19T00:51:55.144Z,100.00
2022-10-19T00:54:23.401Z,100.00
2022-10-19T00:56:53.771Z,100.00
2022-10-19T00:59:23.210Z,100.00
2022-10-19T01:01:51.308Z,100.00
2022-10-19T01:04:22.630Z,100.00
2022-10-19T01:09:24.220Z,100.00
2022-10-19T01:12:13.609Z,100.00
2022-10-19T01:14:59.920Z,100.00
2022-10-19T01:18:01.909Z,100.00
2022-10-19T01:20:54.568Z,100.00
2022-10-19T01:23:39.000Z,100.00
2022-10-19T01:26:12.644Z,100.00
2022-10-19T01:28:57.103Z,100.00
2022-10-19T01:31:37.398Z,100.00
2022-10-19T01:34:20.289Z,100.00
2022-10-19T01:37:07.497Z,100.00
2022-10-19T01:39:53.525Z,100.00
2022-10-19T01:42:45.345Z,100.00
2022-10-19T01:45:22.809Z,100.00
2022-10-19T01:47:56.475Z,100.00
2022-10-19T01:50:38.000Z,100.00
2022-10-19T01:53:08.180Z,100.00
2022-10-19T01:55:39.018Z,100.00
2022-10-19T01:58:09.692Z,100.00
2022-10-19T02:00:40.123Z,100.00
2022-10-19T02:03:09.738Z,100.00
2022-10-19T02:05:39.084Z,100.00
2022-10-19T02:08:11.881Z,100.00
2022-10-19T02:10:42.879Z,100.00
2022-10-19T02:13:12.166Z,100.00
2022-10-19T02:15:43.159Z,100.00
2022-10-19T02:18:14.653Z,100.00
2022-10-19T02:20:42.946Z,100.00
2022-10-19T02:23:11.110Z,100.00
2022-10-19T02:25:39.868Z,100.00
2022-10-19T02:28:08.343Z,100.00
2022-10-19T02:30:36.579Z,100.00
2022-10-19T02:33:04.845Z,100.00
2022-10-19T02:35:33.033Z,100.00
2022-10-19T02:38:02.549Z,100.00
2022-10-19T02:40:33.664Z,100.00
2022-10-19T02:43:06.284Z,100.00
2022-10-19T02:45:36.149Z,100.00
2022-10-19T02:48:07.991Z,100.00
2022-10-19T02:50:36.885Z,100.00
2022-10-19T02:53:05.497Z,100.00
2022-10-19T02:55:34.114Z,100.00
2022-10-19T02:58:02.089Z,100.00
2022-10-19T03:00:30.610Z,100.00
2022-10-19T03:02:59.352Z,100.00
2022-10-19T03:05:27.283Z,100.00
2022-10-19T03:07:55.385Z,100.00
2022-10-19T03:10:24.493Z,100.00
2022-10-19T03:12:52.934Z,100.00
2022-10-19T03:15:23.758Z,100.00
2022-10-19T03:17:54.501Z,100.00
2022-10-19T03:20:23.301Z,100.00
2022-10-19T03:25:21.163Z,100.00
2022-10-19T03:27:49.263Z,100.00
2022-10-19T03:30:17.957Z,100.00
2022-10-19T03:32:45.730Z,100.00
2022-10-19T03:35:13.873Z,100.00
2022-10-19T03:37:41.384Z,100.00
2022-10-19T03:40:10.309Z,100.00
2022-10-19T03:42:37.996Z,100.00
2022-10-19T03:45:07.208Z,100.00
2022-10-19T03:47:36.260Z,100.00
2022-10-19T03:50:06.503Z,100.00
2022-10-19T03:52:34.890Z,100.00
2022-10-19T03:55:04.223Z,100.00
2022-10-19T03:57:32.423Z,100.00
2022-10-19T04:00:00.730Z,100.00
2022-10-19T04:02:28.645Z,100.00
2022-10-19T04:04:56.914Z,100.00
2022-10-19T04:07:24.980Z,100.00
2022-10-19T04:09:53.168Z,100.00
2022-10-19T04:12:21.392Z,100.00
2022-10-19T04:14:57.837Z,100.00
2022-10-19T04:17:26.150Z,100.00
2022-10-19T04:19:54.714Z,100.00
2022-10-19T04:22:22.694Z,100.00
2022-10-19T04:24:51.108Z,100.00
2022-10-19T04:27:19.676Z,100.00
2022-10-19T04:29:47.663Z,100.00
2022-10-19T04:34:56.026Z,100.00
2022-10-19T04:37:24.799Z,100.00
2022-10-19T04:39:52.865Z,100.00
2022-10-19T04:42:20.984Z,100.00
2022-10-19T04:44:48.892Z,100.00
2022-10-19T04:47:17.950Z,100.00
2022-10-19T04:49:46.280Z,100.00
2022-10-19T04:52:14.188Z,100.00
2022-10-19T04:54:42.219Z,100.00
2022-10-19T04:57:10.640Z,100.00
2022-10-19T04:59:38.462Z,100.00
2022-10-19T05:02:06.630Z,100.00
2022-10-19T05:04:34.699Z,100.00
2022-10-19T05:07:02.750Z,100.00
2022-10-19T05:09:30.447Z,100.00
2022-10-19T05:11:59.133Z,100.00
2022-10-19T05:16:56.498Z,100.00
2022-10-19T05:19:25.424Z,100.00
2022-10-19T05:21:54.753Z,100.00
2022-10-19T05:24:23.010Z,100.00
2022-10-19T05:26:51.333Z,100.00
2022-10-19T05:29:19.142Z,100.00
2022-10-19T05:31:48.070Z,100.00
2022-10-19T05:34:16.546Z,100.00
2022-10-19T05:36:47.321Z,100.00
2022-10-19T05:39:18.439Z,100.00
2022-10-19T05:41:48.309Z,100.00
2022-10-19T05:44:22.293Z,100.00
2022-10-19T05:46:52.329Z,100.00
2022-10-19T05:49:21.752Z,100.00
2022-10-19T05:51:51.196Z,100.00
2022-10-19T05:54:21.855Z,100.00
2022-10-19T05:56:52.239Z,100.00
2022-10-19T05:59:21.753Z,100.00
2022-10-19T06:01:50.793Z,100.00
2022-10-19T06:04:18.867Z,100.00
2022-10-19T06:06:46.923Z,100.00
2022-10-19T06:09:15.263Z,100.00
2022-10-19T06:11:44.134Z,100.00
2022-10-19T06:14:14.977Z,100.00
2022-10-19T06:16:46.518Z,100.00
2022-10-19T06:19:14.552Z,100.00
2022-10-19T06:21:46.114Z,100.00
2022-10-19T06:24:15.648Z,100.00
2022-10-19T06:26:44.271Z,100.00
2022-10-19T06:29:13.144Z,100.00
2022-10-19T06:31:41.551Z,100.00
2022-10-19T06:34:09.487Z,100.00
2022-10-19T06:36:38.255Z,100.00
2022-10-19T06:39:07.158Z,100.00
2022-10-19T06:41:35.720Z,100.00
2022-10-19T06:44:19.033Z,100.00
2022-10-19T06:46:48.133Z,100.00
2022-10-19T06:49:16.415Z,100.00
2022-10-19T06:51:45.060Z,100.00
2022-10-19T06:54:13.533Z,100.00
2022-10-19T06:56:41.854Z,100.00
2022-10-19T06:59:10.176Z,100.00
2022-10-19T07:01:38.839Z,100.00
2022-10-19T07:04:06.908Z,100.00
2022-10-19T07:06:35.290Z,100.00
2022-10-19T07:09:04.059Z,100.00
2022-10-19T07:11:32.680Z,100.00
2022-10-19T07:14:01.610Z,100.00
2022-10-19T07:16:30.253Z,100.00
2022-10-19T07:18:58.155Z,100.00
2022-10-19T07:21:26.869Z,100.00
2022-10-19T07:23:55.339Z,100.00
2022-10-19T07:26:27.264Z,100.00
2022-10-19T07:28:58.649Z,100.00
2022-10-19T07:31:28.548Z,100.00
2022-10-19T07:33:58.588Z,100.00
2022-10-19T07:36:27.987Z,100.00
2022-10-19T07:38:56.375Z,100.00
2022-10-19T07:41:26.094Z,100.00
2022-10-19T07:43:54.990Z,100.00
2022-10-19T07:46:25.802Z,100.00
2022-10-19T07:48:54.354Z,100.00
2022-10-19T07:51:23.424Z,100.00
2022-10-19T07:53:51.821Z,100.00
2022-10-19T07:56:22.949Z,100.00
2022-10-19T07:58:53.037Z,100.00
2022-10-19T08:01:26.089Z,100.00
2022-10-19T08:06:44.066Z,100.00
2022-10-19T08:09:27.773Z,100.00
2022-10-19T08:12:00.554Z,100.00
2022-10-19T08:14:29.009Z,100.00
2022-10-19T08:16:57.729Z,100.00
2022-10-19T08:19:26.532Z,100.00
2022-10-19T08:21:55.193Z,100.00
2022-10-19T08:24:23.936Z,100.00
2022-10-19T08:26:52.809Z,100.00
2022-10-19T08:29:21.452Z,100.00
2022-10-19T08:31:51.329Z,100.00
2022-10-19T08:34:19.119Z,100.00
2022-10-19T08:36:47.509Z,100.00
2022-10-19T08:39:18.443Z,100.00
2022-10-19T08:42:05.978Z,100.00
2022-10-19T08:44:42.594Z,100.00
2022-10-19T08:47:49.669Z,100.00
2022-10-19T08:50:38.963Z,100.00
2022-10-19T08:53:16.464Z,100.00
2022-10-19T08:56:26.848Z,100.00
2022-10-19T08:59:10.773Z,100.00
2022-10-19T09:01:42.273Z,100.00
2022-10-19T09:04:10.534Z,100.00
2022-10-19T09:07:04.085Z,100.00
2022-10-19T09:09:33.503Z,100.00
2022-10-19T09:12:05.931Z,100.00
2022-10-19T09:14:52.659Z,100.00
2022-10-19T09:17:21.231Z,100.00
2022-10-19T09:19:49.864Z,100.00
2022-10-19T09:22:31.497Z,100.00
2022-10-19T09:25:04.349Z,100.00
2022-10-19T09:27:38.321Z,100.00
2022-10-19T09:30:21.280Z,100.00
2022-10-19T09:32:59.956Z,100.00
2022-10-19T09:35:38.435Z,100.00
2022-10-19T09:38:08.112Z,100.00
2022-10-19T09:40:36.703Z,100.00
2022-10-19T09:43:20.317Z,100.00
2022-10-19T09:46:10.549Z,100.00
2022-10-19T09:48:53.224Z,100.00
2022-10-19T09:51:22.810Z,100.00
2022-10-19T09:53:53.574Z,100.00
2022-10-19T09:56:27.201Z,100.00
2022-10-19T09:59:00.158Z,100.00
2022-10-19T10:01:40.151Z,100.00
2022-10-19T10:04:18.203Z,100.00
2022-10-19T10:06:48.934Z,100.00
2022-10-19T10:09:19.373Z,100.00
2022-10-19T10:11:49.377Z,100.00
2022-10-19T10:14:30.639Z,100.00
2022-10-19T10:17:03.676Z,100.00
2022-10-19T10:19:33.925Z,100.00
2022-10-19T10:22:04.488Z,100.00
2022-10-19T10:24:34.439Z,100.00
2022-10-19T10:27:07.260Z,100.00
2022-10-19T10:29:37.232Z,100.00
2022-10-19T10:32:13.340Z,100.00
2022-10-19T10:34:51.294Z,100.00
2022-10-19T10:37:25.115Z,100.00
2022-10-19T10:40:00.308Z,100.00
2022-10-19T10:42:40.647Z,100.00
2022-10-19T10:45:23.315Z,100.00
2022-10-19T10:47:52.985Z,100.00
2022-10-19T10:50:22.827Z,100.00
2022-10-19T10:53:02.583Z,100.00
2022-10-19T10:55:31.782Z,100.00
2022-10-19T10:58:10.921Z,100.00
2022-10-19T11:00:40.977Z,100.00
2022-10-19T11:03:22.758Z,100.00
2022-10-19T11:06:01.169Z,100.00
2022-10-19T11:08:36.724Z,100.00
2022-10-19T11:11:14.339Z,100.00
2022-10-19T11:13:59.851Z,100.00
2022-10-19T11:16:34.436Z,100.00
2022-10-19T11:19:12.801Z,100.00
2022-10-19T11:22:02.458Z,100.00
2022-10-19T11:24:48.939Z,100.00
2022-10-19T11:27:51.234Z,100.00
2022-10-19T11:30:22.093Z,100.00
2022-10-19T11:33:12.931Z,100.00
2022-10-19T11:35:58.735Z,100.00
2022-10-19T11:38:37.275Z,100.00
2022-10-19T11:41:18.341Z,100.00
2022-10-19T11:44:17.097Z,100.00
2022-10-19T11:46:58.302Z,100.00
2022-10-19T11:49:58.312Z,100.00
2022-10-19T11:52:46.379Z,100.00
2022-10-19T11:55:24.933Z,100.00
2022-10-19T11:58:20.022Z,100.00
2022-10-19T12:01:04.384Z,100.00
2022-10-19T12:03:51.463Z,100.00
2022-10-19T12:06:29.763Z,100.00
2022-10-19T12:09:34.036Z,100.00
2022-10-19T12:12:08.354Z,99.96
2022-10-19T12:14:40.355Z,99.21
2022-10-19T12:17:16.249Z,97.12
2022-10-19T12:19:50.690Z,94.80
2022-10-19T12:22:27.789Z,94.19
2022-10-19T12:24:59.388Z,95.06
2022-10-19T12:27:39.035Z,97.77
2022-10-19T12:30:16.839Z,98.47
2022-10-19T12:33:20.259Z,97.88
2022-10-19T12:35:51.266Z,96.00
2022-10-19T12:38:30.650Z,94.82
2022-10-19T12:41:15.041Z,89.35
2022-10-19T12:43:58.235Z,90.31
2022-10-19T12:46:36.664Z,88.80
2022-10-19T12:49:41.332Z,91.88
2022-10-19T12:52:09.863Z,90.60
2022-10-19T12:54:40.597Z,87.67
2022-10-19T12:57:41.101Z,88.34
2022-10-19T13:00:36.674Z,88.46
2022-10-19T13:03:16.721Z,84.67
2022-10-19T13:05:57.434Z,86.91
2022-10-19T13:08:38.207Z,85.68
2022-10-19T13:11:10.033Z,84.17
2022-10-19T13:14:23.137Z,85.28
2022-10-19T13:17:04.271Z,86.48
2022-10-19T13:19:32.801Z,86.93
2022-10-19T13:22:00.942Z,92.72
2022-10-19T13:24:37.176Z,97.26
2022-10-19T13:27:05.161Z,100.00
2022-10-19T13:29:40.490Z,100.00
2022-10-19T13:32:41.161Z,100.00
2022-10-19T13:35:32.885Z,100.00
2022-10-19T13:38:22.118Z,100.00
2022-10-19T13:40:50.885Z,100.00
2022-10-19T13:43:38.372Z,100.00
2022-10-19T13:46:19.501Z,100.00
2022-10-19T13:49:03.099Z,100.00
2022-10-19T13:51:46.683Z,100.00
2022-10-19T13:54:36.309Z,100.00
2022-10-19T13:57:24.478Z,100.00
2022-10-19T14:00:37.559Z,100.00
2022-10-19T14:03:27.818Z,100.00
2022-10-19T14:06:07.219Z,100.00
2022-10-19T14:09:06.161Z,100.00
2022-10-19T14:11:40.742Z,100.00
2022-10-19T14:14:11.990Z,100.00
2022-10-19T14:16:46.828Z,100.00
2022-10-19T14:19:27.130Z,100.00
2022-10-19T14:21:57.810Z,100.00
2022-10-19T14:24:34.876Z,100.00
2022-10-19T14:27:05.385Z,100.00
2022-10-19T14:29:53.643Z,100.00
2022-10-19T14:32:27.548Z,100.00
2022-10-19T14:35:01.055Z,100.00
2022-10-19T14:37:28.900Z,100.00
2022-10-19T14:40:26.727Z,100.00
2022-10-19T14:42:58.054Z,100.00
2022-10-19T14:45:29.521Z,100.00
2022-10-19T14:48:02.893Z,100.00
2022-10-19T14:53:33.194Z,100.00
2022-10-19T14:56:10.440Z,100.00
2022-10-19T14:59:07.441Z,100.00
2022-10-19T15:01:36.396Z,99.57
2022-10-19T15:04:04.993Z,99.85
2022-10-19T15:06:42.580Z,99.49
2022-10-19T15:09:43.756Z,97.60
2022-10-19T15:12:17.960Z,97.50
2022-10-19T15:14:46.617Z,98.58
2022-10-19T15:17:33.684Z,98.87
2022-10-19T15:20:02.068Z,98.64
2022-10-19T15:22:33.756Z,99.75
2022-10-19T15:25:07.863Z,100.00
2022-10-19T15:27:42.384Z,99.27
2022-10-19T15:30:30.080Z,99.72
2022-10-19T15:33:01.557Z,99.03
2022-10-19T15:35:32.311Z,99.53
2022-10-19T15:38:10.672Z,97.71
2022-10-19T15:40:41.653Z,100.00
2022-10-19T15:43:34.954Z,99.42
2022-10-19T15:46:14.153Z,100.00
2022-10-19T15:48:43.108Z,100.00
2022-10-19T15:51:29.454Z,100.00
2022-10-19T15:54:06.324Z,100.00
2022-10-19T15:56:37.271Z,100.00
2022-10-19T15:59:11.370Z,100.00
2022-10-19T16:01:39.921Z,100.00
2022-10-19T16:04:08.085Z,100.00
2022-10-19T16:06:38.364Z,100.00
2022-10-19T16:09:07.499Z,100.00
2022-10-19T16:11:36.982Z,100.00
2022-10-19T16:14:05.587Z,100.00
2022-10-19T16:16:34.698Z,100.00
2022-10-19T16:19:03.031Z,100.00
2022-10-19T16:21:33.942Z,100.00
2022-10-19T16:24:02.724Z,100.00
2022-10-19T16:26:32.283Z,100.00
2022-10-19T16:29:01.928Z,100.00
2022-10-19T16:31:29.960Z,100.00
2022-10-19T16:33:58.310Z,100.00
2022-10-19T16:36:26.292Z,100.00
2022-10-19T16:38:54.858Z,100.00
2022-10-19T16:41:22.814Z,100.00
2022-10-19T16:43:55.289Z,100.00
2022-10-19T16:46:23.968Z,100.00
2022-10-19T16:48:52.988Z,100.00
2022-10-19T16:51:44.140Z,100.00
2022-10-19T16:54:12.767Z,100.00
2022-10-19T16:56:45.903Z,100.00
2022-10-19T16:59:19.133Z,100.00
2022-10-19T17:01:47.894Z,100.00
2022-10-19T17:04:19.454Z,100.00
2022-10-19T17:06:47.488Z,100.00
2022-10-19T17:09:41.301Z,100.00
2022-10-19T17:12:04.481Z,100.00
2022-10-19T17:14:34.240Z,100.00
2022-10-19T17:17:02.038Z,100.00
2022-10-19T17:19:30.559Z,100.00
2022-10-19T17:21:59.384Z,100.00
2022-10-19T17:24:27.984Z,100.00
2022-10-19T17:26:56.493Z,100.00
2022-10-19T17:29:24.503Z,100.00
2022-10-19T17:31:52.415Z,100.00
2022-10-19T17:34:21.085Z,100.00
2022-10-19T17:36:49.703Z,100.00
2022-10-19T17:39:25.564Z,100.00
2022-10-19T17:42:02.280Z,100.00
2022-10-19T17:44:31.895Z,100.00
2022-10-19T17:47:01.257Z,100.00
2022-10-19T17:49:30.251Z,100.00
2022-10-19T17:51:58.613Z,100.00
2022-10-19T17:54:27.530Z,100.00
2022-10-19T17:56:56.160Z,100.00
2022-10-19T17:59:34.795Z,100.00
2022-10-19T18:02:05.330Z,100.00
2022-10-19T18:04:34.083Z,100.00
2022-10-19T18:07:02.079Z,100.00
2022-10-19T18:09:30.814Z,100.00
2022-10-19T18:12:02.282Z,100.00
2022-10-19T18:14:32.923Z,100.00
2022-10-19T18:17:00.810Z,100.00
2022-10-19T18:19:29.534Z,100.00
2022-10-19T18:21:58.244Z,100.00
2022-10-19T18:24:30.441Z,100.00
2022-10-19T18:26:58.815Z,100.00
2022-10-19T18:29:27.515Z,100.00
2022-10-19T18:31:55.862Z,100.00
2022-10-19T18:34:26.622Z,100.00
2022-10-19T18:36:55.733Z,100.00
2022-10-19T18:39:24.187Z,100.00
2022-10-19T18:41:56.637Z,100.00
2022-10-19T18:44:27.006Z,100.00
2022-10-19T18:46:57.138Z,100.00
2022-10-19T18:49:26.202Z,100.00
2022-10-19T18:51:56.429Z,100.00
2022-10-19T18:54:28.211Z,100.00
2022-10-19T18:56:56.631Z,100.00
2022-10-19T19:01:57.264Z,100.00
2022-10-19T19:04:25.927Z,100.00
2022-10-19T19:06:54.253Z,100.00
2022-10-19T19:09:22.600Z,100.00
2022-10-19T19:11:52.175Z,100.00
2022-10-19T19:14:23.725Z,100.00
2022-10-19T19:16:51.575Z,100.00
2022-10-19T19:19:20.361Z,100.00
2022-10-19T19:21:49.149Z,100.00
2022-10-19T19:24:21.069Z,100.00
2022-10-19T19:26:54.743Z,100.00
2022-10-19T19:29:22.993Z,100.00
2022-10-19T19:31:52.134Z,100.00
2022-10-19T19:34:20.846Z,100.00
2022-10-19T19:36:49.543Z,100.00
2022-10-19T19:39:20.366Z,100.00
2022-10-19T19:41:49.966Z,100.00
2022-10-19T19:44:18.743Z,100.00
2022-10-19T19:46:47.260Z,100.00
2022-10-19T19:49:15.933Z,100.00
2022-10-19T19:51:43.848Z,100.00
2022-10-19T19:54:12.338Z,100.00
2022-10-19T19:56:42.319Z,100.00
2022-10-19T19:59:12.468Z,100.00
2022-10-19T20:01:40.513Z,100.00
2022-10-19T20:04:10.174Z,100.00
2022-10-19T20:06:39.404Z,100.00
2022-10-19T20:09:09.002Z,100.00
2022-10-19T20:11:42.047Z,100.00
2022-10-19T20:14:12.698Z,100.00
2022-10-19T20:16:41.575Z,100.00
2022-10-19T20:19:14.521Z,100.00
2022-10-19T20:21:43.276Z,100.00
2022-10-19T20:24:11.696Z,100.00
2022-10-19T20:26:40.461Z,100.00
2022-10-19T20:29:09.085Z,100.00
2022-10-19T20:31:40.325Z,100.00
2022-10-19T20:34:14.243Z,100.00
2022-10-19T20:36:42.715Z,100.00
2022-10-19T20:39:11.413Z,100.00
2022-10-19T20:41:39.746Z,100.00
2022-10-19T20:44:08.505Z,100.00
2022-10-19T20:46:37.156Z,100.00
2022-10-19T20:49:08.103Z,100.00
2022-10-19T20:51:39.563Z,100.00
2022-10-19T20:54:12.470Z,100.00
2022-10-19T20:56:42.625Z,100.00
2022-10-19T20:59:19.459Z,100.00
2022-10-19T21:01:52.066Z,100.00
2022-10-19T21:04:20.780Z,100.00
2022-10-19T21:06:58.886Z,100.00
2022-10-19T21:09:30.450Z,100.00
2022-10-19T21:12:03.675Z,100.00
2022-10-19T21:14:32.793Z,100.00
2022-10-19T21:17:01.488Z,100.00
2022-10-19T21:19:31.624Z,100.00
2022-10-19T21:22:06.543Z,100.00
2022-10-19T21:24:36.304Z,100.00
2022-10-19T21:27:07.859Z,100.00
2022-10-19T21:29:37.492Z,100.00
2022-10-19T21:32:05.472Z,100.00
2022-10-19T21:34:33.650Z,100.00
2022-10-19T21:37:02.384Z,100.00
2022-10-19T21:39:31.670Z,100.00
2022-10-19T21:42:00.398Z,100.00
2022-10-19T21:44:28.850Z,100.00
2022-10-19T21:46:56.850Z,100.00
2022-10-19T21:49:25.471Z,100.00
2022-10-19T21:51:55.038Z,100.00
2022-10-19T21:54:25.159Z,100.00
2022-10-19T21:56:53.794Z,100.00
2022-10-19T21:59:22.141Z,100.00
2022-10-19T22:01:50.140Z,100.00
2022-10-19T22:04:19.101Z,100.00
2022-10-19T22:06:47.812Z,100.00
2022-10-19T22:09:18.804Z,100.00
2022-10-19T22:11:48.093Z,100.00
2022-10-19T22:14:17.748Z,100.00
2022-10-19T22:16:45.608Z,100.00
2022-10-19T22:19:15.023Z,100.00
2022-10-19T22:21:43.077Z,100.00
2022-10-19T22:24:14.175Z,100.00
2022-10-19T22:26:44.954Z,100.00
2022-10-19T22:29:13.373Z,100.00
2022-10-19T22:31:42.549Z,100.00
2022-10-19T22:34:14.583Z,100.00
2022-10-19T22:36:43.877Z,100.00
2022-10-19T22:39:13.267Z,100.00
2022-10-19T22:41:40.780Z,100.00
2022-10-19T22:44:08.677Z,100.00
2022-10-19T22:46:36.802Z,100.00
2022-10-19T22:49:04.892Z,100.00
2022-10-19T22:51:33.253Z,100.00
2022-10-19T22:54:01.263Z,100.00
2022-10-19T22:56:30.181Z,100.00
2022-10-19T22:58:59.503Z,100.00
2022-10-19T23:01:27.204Z,100.00
2022-10-19T23:03:55.564Z,100.00
2022-10-19T23:06:24.014Z,100.00
2022-10-19T23:08:54.250Z,100.00
2022-10-19T23:11:22.443Z,100.00
2022-10-19T23:13:50.543Z,100.00
2022-10-19T23:16:18.627Z,100.00
2022-10-19T23:18:47.042Z,100.00
2022-10-19T23:21:15.711Z,100.00
2022-10-19T23:23:44.103Z,100.00
2022-10-19T23:26:16.188Z,100.00
2022-10-19T23:28:47.025Z,100.00
2022-10-19T23:31:17.850Z,100.00
2022-10-19T23:33:47.154Z,100.00
2022-10-19T23:36:20.902Z,100.00
2022-10-19T23:38:50.653Z,100.00
2022-10-19T23:41:20.147Z,100.00
2022-10-19T23:43:49.033Z,100.00
2022-10-19T23:46:16.907Z,100.00
2022-10-19T23:48:45.612Z,100.00
2022-10-19T23:51:16.399Z,100.00
2022-10-19T23:53:46.748Z,100.00
2022-10-19T23:56:17.359Z,100.00
2022-10-19T23:58:45.673Z,100.00
